This is the latest recevied weather packets stored in our database for station/object KD5GAT-51. If no packets are shown the sender has not sent any weather packets the latest 10 day(s).
| Time | Temp. | Humidity | Pressure | Rain* | Wind** | Luminosity | Snow |
|---|---|---|---|---|---|---|---|
| 1777942536 | 26.67° C | 71% | 1011.5 hPa | - | - | - | - |
| 1777941636 | 27.78° C | 65% | 1011.1 hPa | - | - | - | - |
| 1777940736 | 28.33° C | 62% | 1011.1 hPa | - | - | - | - |
| 1777939836 | 29.44° C | 57% | 1011.3 hPa | - | - | - | - |
| 1777938935 | 29.44° C | 56% | 1011.4 hPa | - | - | - | - |
| 1777938035 | 29.44° C | 55% | 1011.5 hPa | - | - | - | - |
| 1777937135 | 29.44° C | 56% | 1011.8 hPa | - | - | - | - |
| 1777936234 | 28.89° C | 57% | 1011.9 hPa | - | - | - | - |
| 1777935334 | 28.89° C | 58% | 1012.2 hPa | - | - | - | - |
| 1777934434 | 28.89° C | 59% | 1012.4 hPa | - | - | - | - |
| 1777933534 | 29.44° C | 57% | 1012.4 hPa | - | - | - | - |
| 1777932633 | 28.89° C | 57% | 1012.5 hPa | - | - | - | - |
| 1777931741 | 29.44° C | 55% | 1012.4 hPa | - | - | - | - |
| 1777930841 | 29.44° C | 54% | 1012.7 hPa | - | - | - | - |
| 1777929941 | 30° C | 54% | 1012.9 hPa | - | - | - | - |
| 1777929040 | 28.33° C | 57% | 1013.4 hPa | - | - | - | - |
| 1777928140 | 28.89° C | 57% | 1013.6 hPa | - | - | - | - |
| 1777927240 | 28.33° C | 58% | 1013.8 hPa | - | - | - | - |
| 1777926340 | 28.33° C | 58% | 1014.2 hPa | - | - | - | - |
| 1777925440 | 28.89° C | 56% | 1014.2 hPa | - | - | - | - |
| 1777924540 | 28.89° C | 58% | 1014.5 hPa | - | - | - | - |
| 1777923639 | 28.33° C | 58% | 1014.7 hPa | - | - | - | - |
| 1777922739 | 29.44° C | 54% | 1014.6 hPa | - | - | - | - |
| 1777921839 | 28.89° C | 55% | 1014.9 hPa | - | - | - | - |
| 1777920939 | 28.89° C | 57% | 1015 hPa | - | - | - | - |
* Rain since midnight (hover to see other rain measurements)
** Current wind speed in m/s (hover to see current wind gust speed)